VLG150 GCTS-LEZL
Flight info
| Callsign | VLG150 |
|---|---|
| Flight time | 1h 57m |
| Altitude | 36000 |
| Route | KORAL UG5 ESS UN871 ADUBI DCT VJF |
| Aircraft | A320/M-SDE3FGHIRWY/LB1 |
Departure
| Time | 2026-03-26 09:14 |
|---|---|
| Airport | Tenerife Sur Airport (GCTS) |
Arrival
| Time | 2026-03-26 11:12 |
|---|---|
| Airport | Seville Airport (LEZL) |
| Time | Latitude | Longitude | Altitude | Speed | Heading |
|---|---|---|---|---|---|
| 2026-03-26 08:55 | 28.04648 | -16.57893 | 214 ft | 0 kts | 10° |
| 2026-03-26 09:08 | 28.04639 | -16.57895 | 213 ft | 3 kts | 9° |
| 2026-03-26 09:08 | 28.04618 | -16.57898 | 212 ft | 3 kts | 6° |
| 2026-03-26 09:08 | 28.04598 | -16.57900 | 215 ft | 3 kts | 359° |
| 2026-03-26 09:08 | 28.04578 | -16.57898 | 212 ft | 3 kts | 340° |
| 2026-03-26 09:09 | 28.04564 | -16.57890 | 215 ft | 3 kts | 278° |
| 2026-03-26 09:09 | 28.04563 | -16.57884 | 213 ft | 0 kts | 247° |
| 2026-03-26 09:10 | 28.04563 | -16.57885 | 213 ft | 0 kts | 247° |
| 2026-03-26 09:11 | 28.04554 | -16.57910 | 204 ft | 4 kts | 248° |
| 2026-03-26 09:11 | 28.04532 | -16.57936 | 213 ft | 6 kts | 211° |
| 2026-03-26 09:11 | 28.04485 | -16.57935 | 206 ft | 9 kts | 163° |
| 2026-03-26 09:11 | 28.04419 | -16.57927 | 212 ft | 11 kts | 206° |
| 2026-03-26 09:12 | 28.04380 | -16.58006 | 208 ft | 14 kts | 247° |
| 2026-03-26 09:12 | 28.04338 | -16.58121 | 202 ft | 18 kts | 244° |
| 2026-03-26 09:12 | 28.04283 | -16.58260 | 209 ft | 21 kts | 249° |
| 2026-03-26 09:12 | 28.04223 | -16.58428 | 206 ft | 24 kts | 248° |
| 2026-03-26 09:13 | 28.04166 | -16.58614 | 207 ft | 26 kts | 251° |
| 2026-03-26 09:13 | 28.04103 | -16.58775 | 208 ft | 15 kts | 230° |
| 2026-03-26 09:13 | 28.04014 | -16.58748 | 205 ft | 16 kts | 113° |
| 2026-03-26 09:13 | 28.03989 | -16.58627 | 201 ft | 16 kts | 109° |
| 2026-03-26 09:14 | 28.04009 | -16.58502 | 209 ft | 22 kts | 68° |
| 2026-03-26 09:14 | 28.04167 | -16.58060 | 211 ft | 105 kts | 68° |
| 2026-03-26 09:14 | 28.04530 | -16.57029 | 215 ft | 174 kts | 68° |
| 2026-03-26 09:14 | 28.04976 | -16.55702 | 982 ft | 179 kts | 68° |
| 2026-03-26 09:15 | 28.05423 | -16.54361 | 1915 ft | 189 kts | 67° |
| 2026-03-26 09:15 | 28.05913 | -16.52914 | 2633 ft | 205 kts | 66° |
| 2026-03-26 09:15 | 28.06452 | -16.51347 | 3370 ft | 225 kts | 67° |
| 2026-03-26 09:15 | 28.07059 | -16.49604 | 4062 ft | 250 kts | 67° |
| 2026-03-26 09:16 | 28.07721 | -16.47714 | 4972 ft | 264 kts | 67° |
| 2026-03-26 09:16 | 28.08400 | -16.45771 | 6188 ft | 265 kts | 69° |
| 2026-03-26 09:16 | 28.08792 | -16.43727 | 7367 ft | 269 kts | 84° |
| 2026-03-26 09:16 | 28.08837 | -16.41596 | 8486 ft | 274 kts | 85° |
| 2026-03-26 09:17 | 28.08960 | -16.39426 | 9564 ft | 279 kts | 83° |
| 2026-03-26 09:17 | 28.09133 | -16.37216 | 10484 ft | 290 kts | 82° |
| 2026-03-26 09:17 | 28.09339 | -16.34849 | 10953 ft | 314 kts | 82° |
| 2026-03-26 09:17 | 28.09561 | -16.32291 | 11401 ft | 337 kts | 82° |
| 2026-03-26 09:18 | 28.09781 | -16.29603 | 12167 ft | 347 kts | 82° |
| 2026-03-26 09:18 | 28.09990 | -16.26859 | 13054 ft | 353 kts | 82° |
| 2026-03-26 09:18 | 28.10192 | -16.24066 | 13936 ft | 358 kts | 82° |
| 2026-03-26 09:18 | 28.10391 | -16.21234 | 14730 ft | 363 kts | 82° |
| 2026-03-26 09:19 | 28.10593 | -16.18362 | 15528 ft | 367 kts | 82° |
| 2026-03-26 09:19 | 28.10798 | -16.15462 | 16336 ft | 372 kts | 82° |
| 2026-03-26 09:19 | 28.11007 | -16.12525 | 17123 ft | 376 kts | 82° |
| 2026-03-26 09:19 | 28.11221 | -16.09553 | 17919 ft | 381 kts | 82° |
| 2026-03-26 09:20 | 28.11435 | -16.06546 | 18651 ft | 385 kts | 82° |
| 2026-03-26 09:20 | 28.11647 | -16.03504 | 19353 ft | 389 kts | 83° |
| 2026-03-26 09:20 | 28.11619 | -16.00413 | 20055 ft | 397 kts | 91° |
| 2026-03-26 09:20 | 28.11410 | -15.97284 | 20765 ft | 400 kts | 91° |
| 2026-03-26 09:21 | 28.11201 | -15.94171 | 21449 ft | 403 kts | 91° |
| 2026-03-26 09:21 | 28.10990 | -15.90989 | 22112 ft | 407 kts | 91° |
| 2026-03-26 09:21 | 28.10777 | -15.87777 | 22762 ft | 410 kts | 91° |
| 2026-03-26 09:21 | 28.10561 | -15.84536 | 23390 ft | 414 kts | 91° |
| 2026-03-26 09:22 | 28.10344 | -15.81273 | 23931 ft | 417 kts | 91° |
| 2026-03-26 09:22 | 28.10124 | -15.77986 | 24424 ft | 421 kts | 91° |
| 2026-03-26 09:22 | 28.09902 | -15.74666 | 24902 ft | 424 kts | 91° |
| 2026-03-26 09:22 | 28.09675 | -15.71329 | 25373 ft | 427 kts | 92° |
| 2026-03-26 09:23 | 28.09443 | -15.67964 | 25838 ft | 430 kts | 92° |
| 2026-03-26 09:23 | 28.09207 | -15.64572 | 26285 ft | 434 kts | 92° |
| 2026-03-26 09:23 | 28.08970 | -15.61155 | 26725 ft | 437 kts | 92° |
| 2026-03-26 09:23 | 28.08732 | -15.57714 | 27151 ft | 440 kts | 92° |
| 2026-03-26 09:24 | 28.08491 | -15.54244 | 27575 ft | 444 kts | 92° |
| 2026-03-26 09:24 | 28.08250 | -15.50747 | 27968 ft | 447 kts | 92° |
| 2026-03-26 09:24 | 28.08247 | -15.47224 | 28356 ft | 448 kts | 83° |
| 2026-03-26 09:24 | 28.08735 | -15.43740 | 28723 ft | 449 kts | 74° |
| 2026-03-26 09:25 | 28.09707 | -15.40392 | 29070 ft | 449 kts | 64° |
| 2026-03-26 09:25 | 28.11133 | -15.37243 | 29412 ft | 450 kts | 56° |
| 2026-03-26 09:25 | 28.12878 | -15.34296 | 29734 ft | 452 kts | 53° |
| 2026-03-26 09:25 | 28.14647 | -15.31346 | 30047 ft | 454 kts | 54° |
| 2026-03-26 09:26 | 28.16421 | -15.28378 | 30281 ft | 457 kts | 54° |
| 2026-03-26 09:26 | 28.18207 | -15.25386 | 30509 ft | 459 kts | 54° |
| 2026-03-26 09:26 | 28.19992 | -15.22391 | 30790 ft | 460 kts | 54° |
| 2026-03-26 09:26 | 28.21787 | -15.19380 | 31045 ft | 462 kts | 53° |
| 2026-03-26 09:27 | 28.23590 | -15.16358 | 31306 ft | 464 kts | 54° |
| 2026-03-26 09:27 | 28.25403 | -15.13323 | 31580 ft | 465 kts | 54° |
| 2026-03-26 09:27 | 28.27223 | -15.10278 | 31855 ft | 467 kts | 53° |
| 2026-03-26 09:27 | 28.29048 | -15.07216 | 32129 ft | 469 kts | 54° |
| 2026-03-26 09:28 | 28.30879 | -15.04135 | 32402 ft | 471 kts | 54° |
| 2026-03-26 09:28 | 28.32714 | -15.01044 | 32675 ft | 473 kts | 54° |
| 2026-03-26 09:28 | 28.36407 | -14.94821 | 33237 ft | 477 kts | 54° |
| 2026-03-26 09:29 | 28.38263 | -14.91693 | 33537 ft | 478 kts | 54° |
| 2026-03-26 09:29 | 28.40125 | -14.88550 | 33848 ft | 480 kts | 54° |
| 2026-03-26 09:29 | 28.41990 | -14.85403 | 34133 ft | 481 kts | 54° |
| 2026-03-26 09:29 | 28.43861 | -14.82248 | 34415 ft | 481 kts | 54° |
| 2026-03-26 09:30 | 28.45706 | -14.79133 | 34707 ft | 481 kts | 54° |
| 2026-03-26 09:30 | 28.47578 | -14.75967 | 35020 ft | 481 kts | 54° |
| 2026-03-26 09:30 | 28.49441 | -14.72813 | 35330 ft | 480 kts | 54° |
| 2026-03-26 09:30 | 28.51297 | -14.69663 | 35643 ft | 479 kts | 54° |
| 2026-03-26 09:31 | 28.53153 | -14.66510 | 35914 ft | 479 kts | 54° |
| 2026-03-26 09:31 | 28.56861 | -14.60212 | 36025 ft | 478 kts | 54° |
| 2026-03-26 09:32 | 28.60561 | -14.53922 | 36020 ft | 478 kts | 54° |
| 2026-03-26 09:32 | 28.64249 | -14.47632 | 36020 ft | 478 kts | 54° |
| 2026-03-26 09:33 | 28.67942 | -14.41337 | 36018 ft | 478 kts | 55° |
| 2026-03-26 09:33 | 28.71629 | -14.35041 | 36017 ft | 478 kts | 55° |
| 2026-03-26 09:34 | 28.75316 | -14.28742 | 36021 ft | 478 kts | 55° |
| 2026-03-26 09:34 | 28.78975 | -14.22472 | 36015 ft | 478 kts | 55° |
| 2026-03-26 09:35 | 28.82652 | -14.16166 | 36011 ft | 478 kts | 55° |
| 2026-03-26 09:35 | 28.86331 | -14.09859 | 36012 ft | 478 kts | 55° |
| 2026-03-26 09:36 | 28.90006 | -14.03531 | 36012 ft | 478 kts | 55° |
| 2026-03-26 09:36 | 28.93676 | -13.97200 | 36008 ft | 478 kts | 55° |
| 2026-03-26 09:37 | 28.97346 | -13.90868 | 36005 ft | 478 kts | 55° |
| 2026-03-26 09:37 | 29.00395 | -13.85607 | 36003 ft | 478 kts | 55° |
| 2026-03-26 09:38 | 29.04660 | -13.78226 | 36003 ft | 478 kts | 56° |
| 2026-03-26 09:38 | 29.08320 | -13.71869 | 35997 ft | 478 kts | 56° |
| 2026-03-26 09:39 | 29.11975 | -13.65517 | 36001 ft | 478 kts | 56° |
| 2026-03-26 09:39 | 29.15034 | -13.60199 | 36002 ft | 478 kts | 56° |
| 2026-03-26 09:40 | 29.18685 | -13.53849 | 36000 ft | 477 kts | 56° |
| 2026-03-26 09:40 | 29.22310 | -13.47534 | 36000 ft | 477 kts | 56° |
| 2026-03-26 09:41 | 29.25944 | -13.41177 | 35998 ft | 477 kts | 56° |
| 2026-03-26 09:41 | 29.29579 | -13.34818 | 35997 ft | 477 kts | 56° |
| 2026-03-26 09:42 | 29.33218 | -13.28451 | 35990 ft | 477 kts | 56° |
| 2026-03-26 09:42 | 29.36847 | -13.22081 | 35994 ft | 477 kts | 56° |
| 2026-03-26 09:43 | 29.40471 | -13.15695 | 35991 ft | 478 kts | 56° |
| 2026-03-26 09:43 | 29.44103 | -13.09316 | 35989 ft | 478 kts | 56° |
| 2026-03-26 09:44 | 29.47737 | -13.02925 | 35985 ft | 478 kts | 56° |
| 2026-03-26 09:44 | 29.51365 | -12.96527 | 35986 ft | 478 kts | 57° |
| 2026-03-26 09:45 | 29.54990 | -12.90112 | 35990 ft | 478 kts | 57° |
| 2026-03-26 09:45 | 29.58605 | -12.83701 | 35988 ft | 479 kts | 57° |
| 2026-03-26 09:46 | 29.62226 | -12.77268 | 35992 ft | 479 kts | 57° |
| 2026-03-26 09:46 | 29.65819 | -12.70880 | 35992 ft | 479 kts | 57° |
| 2026-03-26 09:47 | 29.69445 | -12.64441 | 35994 ft | 479 kts | 57° |
| 2026-03-26 09:47 | 29.73053 | -12.58004 | 35988 ft | 479 kts | 57° |
| 2026-03-26 09:48 | 29.76737 | -12.51615 | 35988 ft | 479 kts | 56° |
| 2026-03-26 09:48 | 29.80524 | -12.45309 | 35986 ft | 479 kts | 55° |
| 2026-03-26 09:49 | 29.84307 | -12.38994 | 35979 ft | 478 kts | 56° |
| 2026-03-26 09:49 | 29.88050 | -12.32661 | 35979 ft | 478 kts | 56° |
| 2026-03-26 09:50 | 29.91771 | -12.26320 | 35975 ft | 478 kts | 56° |
| 2026-03-26 09:50 | 29.95484 | -12.19974 | 35972 ft | 477 kts | 56° |
| 2026-03-26 09:51 | 29.99208 | -12.13632 | 35968 ft | 478 kts | 56° |
| 2026-03-26 09:51 | 30.02934 | -12.07282 | 35966 ft | 478 kts | 56° |
| 2026-03-26 09:52 | 30.06688 | -12.00947 | 35965 ft | 478 kts | 56° |
| 2026-03-26 09:52 | 30.10455 | -11.94598 | 35973 ft | 479 kts | 56° |
| 2026-03-26 09:53 | 30.14200 | -11.88244 | 35968 ft | 479 kts | 56° |
| 2026-03-26 09:53 | 30.17948 | -11.81883 | 35969 ft | 479 kts | 56° |
| 2026-03-26 09:54 | 30.21664 | -11.75560 | 35967 ft | 479 kts | 56° |
| 2026-03-26 09:54 | 30.25404 | -11.69192 | 35963 ft | 478 kts | 56° |
| 2026-03-26 09:55 | 30.29141 | -11.62822 | 35963 ft | 478 kts | 56° |
| 2026-03-26 09:55 | 30.32875 | -11.56444 | 35959 ft | 478 kts | 57° |
| 2026-03-26 09:56 | 30.36608 | -11.50067 | 35959 ft | 478 kts | 56° |
| 2026-03-26 09:56 | 30.40329 | -11.43684 | 35958 ft | 478 kts | 57° |
| 2026-03-26 09:57 | 30.44044 | -11.37296 | 35958 ft | 478 kts | 57° |
| 2026-03-26 09:57 | 30.47760 | -11.30898 | 35950 ft | 478 kts | 57° |
| 2026-03-26 09:58 | 30.51481 | -11.24505 | 35950 ft | 478 kts | 57° |
| 2026-03-26 09:58 | 30.55196 | -11.18104 | 35951 ft | 478 kts | 57° |
| 2026-03-26 09:59 | 30.58878 | -11.11731 | 35949 ft | 478 kts | 57° |
| 2026-03-26 09:59 | 30.62582 | -11.05321 | 35948 ft | 478 kts | 57° |
| 2026-03-26 10:00 | 30.66284 | -10.98900 | 35944 ft | 478 kts | 57° |
| 2026-03-26 10:00 | 30.69975 | -10.92482 | 35938 ft | 478 kts | 57° |
| 2026-03-26 10:01 | 30.73671 | -10.86053 | 35933 ft | 478 kts | 57° |
| 2026-03-26 10:01 | 30.77363 | -10.79625 | 35934 ft | 478 kts | 57° |
| 2026-03-26 10:02 | 30.81051 | -10.73198 | 35931 ft | 478 kts | 57° |
| 2026-03-26 10:02 | 30.84735 | -10.66756 | 35929 ft | 478 kts | 57° |
| 2026-03-26 10:03 | 30.88414 | -10.60308 | 35928 ft | 478 kts | 57° |
| 2026-03-26 10:03 | 30.92098 | -10.53854 | 35926 ft | 478 kts | 57° |
| 2026-03-26 10:04 | 30.95775 | -10.47402 | 35925 ft | 478 kts | 57° |
| 2026-03-26 10:04 | 30.99454 | -10.40931 | 35941 ft | 479 kts | 57° |
| 2026-03-26 10:05 | 31.03133 | -10.34456 | 35938 ft | 479 kts | 57° |
| 2026-03-26 10:05 | 31.08639 | -10.24734 | 35933 ft | 479 kts | 57° |
| 2026-03-26 10:06 | 31.12307 | -10.18256 | 35930 ft | 478 kts | 57° |
| 2026-03-26 10:06 | 31.15944 | -10.11806 | 35928 ft | 478 kts | 57° |
| 2026-03-26 10:07 | 31.19600 | -10.05305 | 35921 ft | 478 kts | 57° |
| 2026-03-26 10:07 | 31.23258 | -9.98811 | 35919 ft | 478 kts | 57° |
| 2026-03-26 10:08 | 31.26913 | -9.92316 | 35920 ft | 478 kts | 57° |
| 2026-03-26 10:08 | 31.30562 | -9.85814 | 35923 ft | 478 kts | 57° |
| 2026-03-26 10:09 | 31.34204 | -9.79305 | 35925 ft | 479 kts | 57° |
| 2026-03-26 10:09 | 31.37855 | -9.72790 | 35923 ft | 479 kts | 55° |
| 2026-03-26 10:10 | 31.42459 | -9.67178 | 35920 ft | 480 kts | 37° |
| 2026-03-26 10:10 | 31.48081 | -9.62981 | 35921 ft | 480 kts | 31° |
| 2026-03-26 10:11 | 31.53779 | -9.58876 | 35922 ft | 480 kts | 31° |
| 2026-03-26 10:11 | 31.59427 | -9.54784 | 35926 ft | 480 kts | 31° |
| 2026-03-26 10:12 | 31.65105 | -9.50666 | 35932 ft | 480 kts | 31° |
| 2026-03-26 10:12 | 31.70797 | -9.46554 | 35939 ft | 479 kts | 31° |
| 2026-03-26 10:13 | 31.76468 | -9.42447 | 35938 ft | 479 kts | 31° |
| 2026-03-26 10:13 | 31.82135 | -9.38328 | 35944 ft | 479 kts | 31° |
| 2026-03-26 10:14 | 31.87798 | -9.34208 | 35941 ft | 478 kts | 31° |
| 2026-03-26 10:14 | 31.93464 | -9.30082 | 35947 ft | 478 kts | 31° |
| 2026-03-26 10:15 | 31.99123 | -9.25966 | 35958 ft | 477 kts | 32° |
| 2026-03-26 10:15 | 32.04764 | -9.21839 | 35967 ft | 477 kts | 32° |
| 2026-03-26 10:16 | 32.10353 | -9.17737 | 35966 ft | 475 kts | 32° |
| 2026-03-26 10:16 | 32.15999 | -9.13594 | 35968 ft | 474 kts | 32° |
| 2026-03-26 10:17 | 32.21565 | -9.09512 | 35971 ft | 473 kts | 32° |
| 2026-03-26 10:17 | 32.27151 | -9.05403 | 35970 ft | 472 kts | 32° |
| 2026-03-26 10:18 | 32.32720 | -9.01301 | 35974 ft | 471 kts | 32° |
| 2026-03-26 10:18 | 32.38286 | -8.97203 | 35973 ft | 471 kts | 32° |
| 2026-03-26 10:19 | 32.43835 | -8.93110 | 35973 ft | 470 kts | 32° |
| 2026-03-26 10:19 | 32.49380 | -8.89013 | 35975 ft | 469 kts | 32° |
| 2026-03-26 10:20 | 32.54907 | -8.84928 | 35973 ft | 468 kts | 32° |
| 2026-03-26 10:20 | 32.60427 | -8.80835 | 35975 ft | 467 kts | 33° |
| 2026-03-26 10:21 | 32.65935 | -8.76743 | 35975 ft | 466 kts | 33° |
| 2026-03-26 10:21 | 32.71429 | -8.72655 | 35977 ft | 466 kts | 33° |
| 2026-03-26 10:22 | 32.76916 | -8.68570 | 35974 ft | 465 kts | 33° |
| 2026-03-26 10:22 | 32.82390 | -8.64489 | 35971 ft | 464 kts | 33° |
| 2026-03-26 10:23 | 32.86935 | -8.61093 | 35970 ft | 464 kts | 33° |
| 2026-03-26 10:23 | 32.92391 | -8.57009 | 35971 ft | 463 kts | 33° |
| 2026-03-26 10:24 | 32.97838 | -8.52929 | 35968 ft | 462 kts | 33° |
| 2026-03-26 10:24 | 33.03281 | -8.48844 | 35964 ft | 461 kts | 33° |
| 2026-03-26 10:25 | 33.08707 | -8.44771 | 35967 ft | 461 kts | 33° |
| 2026-03-26 10:25 | 33.14123 | -8.40696 | 35968 ft | 460 kts | 33° |
| 2026-03-26 10:26 | 33.19532 | -8.36620 | 35968 ft | 459 kts | 33° |
| 2026-03-26 10:26 | 33.24937 | -8.32549 | 35960 ft | 459 kts | 33° |
| 2026-03-26 10:27 | 33.30339 | -8.28487 | 35963 ft | 459 kts | 33° |
| 2026-03-26 10:27 | 33.35738 | -8.24426 | 35958 ft | 458 kts | 33° |
| 2026-03-26 10:28 | 33.41134 | -8.20358 | 35963 ft | 458 kts | 33° |
| 2026-03-26 10:28 | 33.46525 | -8.16287 | 35958 ft | 458 kts | 33° |
| 2026-03-26 10:29 | 33.51903 | -8.12210 | 35962 ft | 457 kts | 33° |
| 2026-03-26 10:29 | 33.57248 | -8.08154 | 35957 ft | 457 kts | 33° |
| 2026-03-26 10:30 | 33.62616 | -8.04075 | 35958 ft | 456 kts | 33° |
| 2026-03-26 10:30 | 33.67980 | -7.99990 | 35958 ft | 456 kts | 33° |
| 2026-03-26 10:31 | 33.73347 | -7.95907 | 35956 ft | 456 kts | 33° |
| 2026-03-26 10:31 | 33.78697 | -7.91824 | 35950 ft | 456 kts | 33° |
| 2026-03-26 10:32 | 33.84045 | -7.87733 | 35947 ft | 455 kts | 33° |
| 2026-03-26 10:32 | 33.89389 | -7.83639 | 35950 ft | 455 kts | 33° |
| 2026-03-26 10:33 | 33.94724 | -7.79550 | 35945 ft | 454 kts | 33° |
| 2026-03-26 10:33 | 34.00054 | -7.75471 | 35946 ft | 454 kts | 33° |
| 2026-03-26 10:34 | 34.05373 | -7.71394 | 35938 ft | 453 kts | 34° |
| 2026-03-26 10:34 | 34.10689 | -7.67300 | 35941 ft | 453 kts | 34° |
| 2026-03-26 10:35 | 34.16003 | -7.63201 | 35946 ft | 453 kts | 34° |
| 2026-03-26 10:35 | 34.21312 | -7.59103 | 35932 ft | 452 kts | 34° |
| 2026-03-26 10:36 | 34.26606 | -7.55008 | 35946 ft | 452 kts | 34° |
| 2026-03-26 10:36 | 34.31858 | -7.50939 | 35948 ft | 451 kts | 34° |
| 2026-03-26 10:37 | 34.37171 | -7.46822 | 35943 ft | 450 kts | 34° |
| 2026-03-26 10:37 | 34.42405 | -7.42760 | 35930 ft | 450 kts | 34° |
| 2026-03-26 10:38 | 34.47669 | -7.38664 | 35939 ft | 449 kts | 34° |
| 2026-03-26 10:38 | 34.52924 | -7.34560 | 35936 ft | 449 kts | 34° |
| 2026-03-26 10:39 | 34.58172 | -7.30460 | 35926 ft | 449 kts | 34° |
| 2026-03-26 10:39 | 34.63432 | -7.26351 | 35919 ft | 449 kts | 34° |
| 2026-03-26 10:40 | 34.68682 | -7.22246 | 35931 ft | 449 kts | 34° |
| 2026-03-26 10:40 | 34.73935 | -7.18125 | 35921 ft | 449 kts | 34° |
| 2026-03-26 10:41 | 34.79171 | -7.14002 | 35940 ft | 448 kts | 34° |
| 2026-03-26 10:41 | 34.84409 | -7.09890 | 35937 ft | 448 kts | 34° |
| 2026-03-26 10:42 | 34.89641 | -7.05775 | 35940 ft | 447 kts | 34° |
| 2026-03-26 10:43 | 34.97471 | -6.99592 | 35938 ft | 446 kts | 34° |
| 2026-03-26 10:43 | 35.02648 | -6.95501 | 35935 ft | 446 kts | 34° |
| 2026-03-26 10:44 | 35.07842 | -6.91388 | 35938 ft | 445 kts | 34° |
| 2026-03-26 10:44 | 35.13037 | -6.87274 | 35937 ft | 444 kts | 34° |
| 2026-03-26 10:45 | 35.18045 | -6.83298 | 35939 ft | 443 kts | 35° |
| 2026-03-26 10:45 | 35.23208 | -6.79190 | 35944 ft | 442 kts | 35° |
| 2026-03-26 10:46 | 35.28365 | -6.75078 | 35942 ft | 442 kts | 35° |
| 2026-03-26 10:46 | 35.33475 | -6.71004 | 35938 ft | 441 kts | 35° |
| 2026-03-26 10:47 | 35.38633 | -6.66944 | 35934 ft | 440 kts | 34° |
| 2026-03-26 10:47 | 35.43830 | -6.62966 | 35934 ft | 440 kts | 34° |
| 2026-03-26 10:48 | 35.49024 | -6.58992 | 35933 ft | 439 kts | 34° |
| 2026-03-26 10:48 | 35.54195 | -6.55008 | 35934 ft | 439 kts | 34° |
| 2026-03-26 10:49 | 35.59361 | -6.51018 | 35934 ft | 438 kts | 34° |
| 2026-03-26 10:49 | 35.64514 | -6.47024 | 35935 ft | 437 kts | 35° |
| 2026-03-26 10:50 | 35.69656 | -6.43033 | 35938 ft | 437 kts | 35° |
| 2026-03-26 10:50 | 35.74788 | -6.39042 | 35941 ft | 436 kts | 35° |
| 2026-03-26 10:51 | 35.79915 | -6.35049 | 35947 ft | 435 kts | 35° |
| 2026-03-26 10:51 | 35.85011 | -6.31041 | 35950 ft | 434 kts | 36° |
| 2026-03-26 10:52 | 35.89979 | -6.26844 | 35955 ft | 433 kts | 38° |
| 2026-03-26 10:52 | 35.94891 | -6.22554 | 35953 ft | 432 kts | 38° |
| 2026-03-26 10:53 | 35.99818 | -6.18290 | 35958 ft | 432 kts | 38° |
| 2026-03-26 10:53 | 36.04753 | -6.14061 | 35964 ft | 432 kts | 38° |
| 2026-03-26 10:54 | 36.09660 | -6.09863 | 35970 ft | 431 kts | 38° |
| 2026-03-26 10:54 | 36.14615 | -6.05602 | 35974 ft | 431 kts | 38° |
| 2026-03-26 10:54 | 36.17039 | -6.03510 | 35858 ft | 430 kts | 38° |
| 2026-03-26 10:55 | 36.19487 | -6.01392 | 35579 ft | 428 kts | 38° |
| 2026-03-26 10:55 | 36.21996 | -5.99397 | 34633 ft | 431 kts | 32° |
| 2026-03-26 10:55 | 36.24764 | -5.97915 | 33524 ft | 437 kts | 23° |
| 2026-03-26 10:55 | 36.27744 | -5.97039 | 32288 ft | 445 kts | 13° |
| 2026-03-26 10:56 | 36.30837 | -5.96637 | 31090 ft | 447 kts | 11° |
| 2026-03-26 10:56 | 36.33929 | -5.96255 | 29923 ft | 446 kts | 11° |
| 2026-03-26 10:56 | 36.37018 | -5.95861 | 28596 ft | 446 kts | 11° |
| 2026-03-26 10:56 | 36.40097 | -5.95461 | 27348 ft | 445 kts | 11° |
| 2026-03-26 10:57 | 36.43179 | -5.95056 | 26142 ft | 444 kts | 11° |
| 2026-03-26 10:57 | 36.46239 | -5.94651 | 24994 ft | 441 kts | 11° |
| 2026-03-26 10:57 | 36.49318 | -5.94484 | 23893 ft | 445 kts | 2° |
| 2026-03-26 10:57 | 36.52401 | -5.94962 | 22667 ft | 450 kts | 352° |
| 2026-03-26 10:58 | 36.58470 | -5.96576 | 20726 ft | 439 kts | 351° |
| 2026-03-26 10:58 | 36.61443 | -5.97367 | 19861 ft | 433 kts | 351° |
| 2026-03-26 10:58 | 36.64369 | -5.98139 | 19057 ft | 428 kts | 351° |
| 2026-03-26 10:59 | 36.67271 | -5.98903 | 18277 ft | 422 kts | 351° |
| 2026-03-26 10:59 | 36.70129 | -5.99653 | 17463 ft | 416 kts | 350° |
| 2026-03-26 10:59 | 36.72939 | -6.00391 | 16782 ft | 409 kts | 350° |
| 2026-03-26 10:59 | 36.75708 | -6.01117 | 16108 ft | 404 kts | 350° |
| 2026-03-26 11:00 | 36.78441 | -6.01835 | 15421 ft | 399 kts | 350° |
| 2026-03-26 11:00 | 36.81144 | -6.02543 | 14727 ft | 395 kts | 351° |
| 2026-03-26 11:00 | 36.83847 | -6.03001 | 14027 ft | 390 kts | 355° |
| 2026-03-26 11:00 | 36.86537 | -6.03402 | 13232 ft | 388 kts | 354° |
| 2026-03-26 11:01 | 36.89204 | -6.03800 | 12461 ft | 384 kts | 354° |
| 2026-03-26 11:01 | 36.91806 | -6.04187 | 11688 ft | 379 kts | 354° |
| 2026-03-26 11:01 | 36.94446 | -6.04584 | 10919 ft | 375 kts | 354° |
| 2026-03-26 11:01 | 36.96905 | -6.04957 | 10514 ft | 344 kts | 354° |
| 2026-03-26 11:02 | 36.99177 | -6.05305 | 10246 ft | 314 kts | 354° |
| 2026-03-26 11:02 | 37.01266 | -6.05626 | 9861 ft | 294 kts | 354° |
| 2026-03-26 11:02 | 37.03276 | -6.05930 | 9727 ft | 289 kts | 354° |
| 2026-03-26 11:02 | 37.05262 | -6.06227 | 9606 ft | 287 kts | 354° |
| 2026-03-26 11:03 | 37.07243 | -6.06525 | 9474 ft | 286 kts | 354° |
| 2026-03-26 11:03 | 37.09222 | -6.06824 | 9333 ft | 285 kts | 355° |
| 2026-03-26 11:03 | 37.11190 | -6.07120 | 9204 ft | 285 kts | 355° |
| 2026-03-26 11:03 | 37.13159 | -6.07418 | 9075 ft | 284 kts | 354° |
| 2026-03-26 11:04 | 37.15120 | -6.07714 | 8847 ft | 284 kts | 355° |
| 2026-03-26 11:04 | 37.17075 | -6.08008 | 8492 ft | 282 kts | 357° |
| 2026-03-26 11:04 | 37.19021 | -6.08300 | 8013 ft | 281 kts | 355° |
| 2026-03-26 11:04 | 37.20955 | -6.08593 | 7542 ft | 280 kts | 355° |
| 2026-03-26 11:05 | 37.22889 | -6.08889 | 7028 ft | 280 kts | 355° |
| 2026-03-26 11:05 | 37.24843 | -6.09187 | 6343 ft | 286 kts | 355° |
| 2026-03-26 11:05 | 37.26794 | -6.09485 | 5631 ft | 278 kts | 355° |
| 2026-03-26 11:05 | 37.28689 | -6.09776 | 4924 ft | 270 kts | 356° |
| 2026-03-26 11:06 | 37.30530 | -6.10058 | 4214 ft | 264 kts | 356° |
| 2026-03-26 11:06 | 37.32323 | -6.10332 | 3682 ft | 251 kts | 356° |
| 2026-03-26 11:06 | 37.34001 | -6.10591 | 3452 ft | 234 kts | 356° |
| 2026-03-26 11:06 | 37.35523 | -6.10828 | 3326 ft | 214 kts | 357° |
| 2026-03-26 11:07 | 37.36946 | -6.11048 | 3250 ft | 203 kts | 358° |
| 2026-03-26 11:07 | 37.38346 | -6.11222 | 3084 ft | 202 kts | 4° |
| 2026-03-26 11:07 | 37.39695 | -6.10857 | 2853 ft | 190 kts | 28° |
| 2026-03-26 11:07 | 37.40752 | -6.09929 | 2748 ft | 184 kts | 48° |
| 2026-03-26 11:08 | 37.41451 | -6.08613 | 2600 ft | 180 kts | 69° |
| 2026-03-26 11:08 | 37.41717 | -6.07102 | 2422 ft | 175 kts | 86° |
| 2026-03-26 11:08 | 37.41729 | -6.05595 | 2195 ft | 172 kts | 89° |
| 2026-03-26 11:08 | 37.41731 | -6.04150 | 1961 ft | 158 kts | 88° |
| 2026-03-26 11:09 | 37.41735 | -6.03260 | 1826 ft | 149 kts | 88° |
| 2026-03-26 11:09 | 37.41738 | -6.02055 | 1651 ft | 130 kts | 89° |
| 2026-03-26 11:09 | 37.41745 | -6.00952 | 1456 ft | 124 kts | 88° |
| 2026-03-26 11:09 | 37.41742 | -5.99871 | 1232 ft | 122 kts | 88° |
| 2026-03-26 11:10 | 37.41743 | -5.98832 | 1038 ft | 115 kts | 88° |
| 2026-03-26 11:10 | 37.41757 | -5.97833 | 970 ft | 115 kts | 87° |
| 2026-03-26 11:10 | 37.41765 | -5.96815 | 842 ft | 114 kts | 88° |
| 2026-03-26 11:10 | 37.41770 | -5.95802 | 732 ft | 118 kts | 89° |
| 2026-03-26 11:11 | 37.41776 | -5.94779 | 604 ft | 115 kts | 88° |
| 2026-03-26 11:11 | 37.41778 | -5.93773 | 510 ft | 115 kts | 86° |
| 2026-03-26 11:11 | 37.41785 | -5.92763 | 403 ft | 115 kts | 86° |
| 2026-03-26 11:11 | 37.41786 | -5.91731 | 246 ft | 117 kts | 89° |
| 2026-03-26 11:12 | 37.41790 | -5.90706 | 103 ft | 114 kts | 88° |
| 2026-03-26 11:12 | 37.41794 | -5.89904 | 99 ft | 67 kts | 90° |
| 2026-03-26 11:12 | 37.41795 | -5.89523 | 99 ft | 32 kts | 90° |
| 2026-03-26 11:12 | 37.41794 | -5.89322 | 100 ft | 16 kts | 88° |
| 2026-03-26 11:13 | 37.41830 | -5.89265 | 100 ft | 11 kts | 341° |
| 2026-03-26 11:13 | 37.41904 | -5.89303 | 99 ft | 12 kts | 334° |
| 2026-03-26 11:13 | 37.41976 | -5.89355 | 99 ft | 12 kts | 326° |
| 2026-03-26 11:13 | 37.42038 | -5.89429 | 98 ft | 13 kts | 314° |
| 2026-03-26 11:14 | 37.42102 | -5.89514 | 98 ft | 14 kts | 313° |
| 2026-03-26 11:14 | 37.42174 | -5.89606 | 95 ft | 16 kts | 314° |
| 2026-03-26 11:14 | 37.42239 | -5.89688 | 94 ft | 11 kts | 315° |
| 2026-03-26 11:14 | 37.42297 | -5.89738 | 96 ft | 9 kts | 336° |
| 2026-03-26 11:15 | 37.42334 | -5.89782 | 95 ft | 3 kts | 314° |
| 2026-03-26 11:15 | 37.42340 | -5.89789 | 95 ft | 0 kts | 315° |